Flight Track Log - Related Links

Times and Time Zones

All times are in EDT time to prevent confusion due to time zone crossing. See the SWA1464 flight status page for this flight to view local times or setup timezone preferences in your user account.

Time Position Orientation Groundspeed Altitude Reporting Facility
EDT Latitude Longitude Course Direction KTS MPH feet Rate Location/Type
Sun 04:00:46 PM 27.7533 -97.4886 129° Southeast 149 171 1,000  Level Houston Center
Sun 04:01:23 PM 27.7361 -97.4650 129° Southeast 174 200 1,900 1,943 Climbing Houston Center
Sun 04:02:31 PM 27.7736 -97.4189 47° Northeast 244 281 4,400 2,815 Climbing Houston Center
Sun 04:03:33 PM 27.8497 -97.3975 14° North 278 320 8,000 3,823 Climbing Houston Center
Sun 04:04:35 PM 27.9456 -97.3622 18° North 297 342 12,300 3,387 Climbing Houston Center
Sun 04:05:37 PM 28.0103 -97.3028 39° Northeast 321 369 15,000 2,565 Climbing Houston Center
Sun 04:06:39 PM 28.0867 -97.2311 40° Northeast 354 407 17,600 2,516 Climbing Houston Center
Sun 04:07:41 PM 28.1692 -97.1517 40° Northeast 387 445 20,200 2,468 Climbing Houston Center
Sun 04:08:43 PM 28.2744 -97.0497 40° Northeast 414 476 22,700 1,355 Climbing Houston Center
Sun 04:09:45 PM 28.3689 -96.9567 41° Northeast 445 512 23,000 1,065 Climbing Houston Center
Sun 04:10:47 PM 28.4614 -96.8675 40° Northeast 439 505 24,900 919 Climbing Houston Center
Sun 04:11:49 PM 28.5522 -96.7797 40° Northeast 433 498 24,900  Level Houston Center
Sun 04:12:51 PM 28.6450 -96.6881 41° Northeast 441 507 24,900 -528 Level Houston Center
Sun 04:13:54 PM 28.7561 -96.5781 41° Northeast 444 511 23,800 -1,392 Descending Houston Center
Sun 04:14:56 PM 28.8478 -96.4883 41° Northeast 439 505 22,000 -1,887 Descending Houston Center
Sun 04:15:58 PM 28.9364 -96.4003 41° Northeast 425 489 19,900 -2,177 Descending Houston Center
Sun 04:17:00 PM 29.0219 -96.3164 41° Northeast 413 475 17,500 -1,887 Descending Houston Center
Sun 04:18:02 PM 29.1022 -96.2375 41° Northeast 388 447 16,000 -1,754 Descending Houston Center
Sun 04:19:10 PM 29.1972 -96.1411 42° Northeast 341 392 13,700 -1,887 Descending Houston Center
Sun 04:20:06 PM 29.2617 -96.0769 41° Northeast 348 400 12,100 -1,119 Descending Houston Center
Sun 04:21:08 PM 29.3281 -96.0117 41° Northeast 322 371 11,500 -1,030 Descending Houston Center
Sun 04:22:20 PM 29.3981 -95.9172 50° Northeast 295 339 9,800 -1,306 Descending Houston Center
Sun 04:23:12 PM 29.4419 -95.8592 49° Northeast 293 337 8,800 -1,211 Descending Houston Center
Sun 04:24:14 PM 29.4939 -95.7922 48° Northeast 285 328 7,500 -1,344 Descending Houston Center
Sun 04:25:17 PM 29.5431 -95.7253 50° Northeast 275 316 6,000 -720 Descending Houston Center
Sun 04:26:19 PM 29.5919 -95.6628 48° Northeast 268 308 6,000  Level Houston Center
Sun 04:27:21 PM 29.6342 -95.6061 49° Northeast 242 278 6,000 -488 Level Houston Center
Sun 04:28:22 PM 29.6881 -95.5425 46° Northeast 231 266 5,000 -1,082 Descending Houston Center
Sun 04:29:23 PM 29.7319 -95.4939 44° Northeast 210 242 3,800 -1,056 Descending Houston Center
Sun 04:30:27 PM 29.7506 -95.4347 70° East 214 246 2,800 -878 Descending Houston Center
Sun 04:31:26 PM 29.7319 -95.3808 112° Southeast 171 197 2,000 -700 Descending Houston Center
Sun 04:32:27 PM 29.6992 -95.3439 136° Southeast 162 186 1,400 -567 Descending Houston Center
Sun 04:33:33 PM 29.6742 -95.3139 134° Southeast 158 182 800 -563 Descending Houston Center
Sun 04:34:35 PM 29.6467 -95.2808 134° Southeast 144 166 200 -581 Descending Houston Center
Sun 04:36:00 PM 29.6454 -95.2789 115° Southeast  Level Estimated

Login

Don't have an account? Register now (free) for customized features, flight alerts, and more!